Time;durP1;ratioP1;P1;durP2;ratioP2;P2;SDS_P1;SDS_P2;PMS_P1;PMS_P2;Temp;Humidity;BMP_temperature;BMP_pressure;BME280_temperature;BME280_humidity;BME280_pressure;Samples;Min_cycle;Max_cycle;Signal;HPM_P1;HPM_P2
2021/11/03 00:00:10;;;;;;;2.70;1.85;;;4.70;74.90;;;;;;5068440;28;20190;-66
2021/11/03 00:02:41;;;;;;;4.53;2.35;;;4.70;75.00;;;;;;5070963;28;20190;-66
2021/11/03 00:05:45;;;;;;;4.05;2.90;;;4.70;75.20;;;;;;5070459;28;20552;-67
2021/11/03 00:08:15;;;;;;;3.92;2.00;;;4.60;74.80;;;;;;5067918;28;20517;-66
2021/11/03 00:10:45;;;;;;;3.75;2.30;;;4.60;74.50;;;;;;5071184;28;20259;-65
2021/11/03 00:13:14;;;;;;;3.70;2.53;;;4.60;74.70;;;;;;5070151;28;20200;-66
2021/11/03 00:15:48;;;;;;;3.55;2.63;;;4.60;75.20;;;;;;5071049;28;20237;-65
2021/11/03 00:18:20;;;;;;;3.83;2.58;;;4.50;75.00;;;;;;5070488;28;20193;-65
2021/11/03 00:20:57;;;;;;;4.55;2.90;;;4.40;74.80;;;;;;5066925;28;20289;-65
2021/11/03 00:23:26;;;;;;;5.47;2.90;;;4.40;75.50;;;;;;5070491;28;20239;-65
2021/11/03 00:25:59;;;;;;;5.50;3.42;;;4.50;76.60;;;;;;5070520;28;20221;-66
2021/11/03 00:28:28;;;;;;;8.65;4.03;;;4.50;76.70;;;;;;5070518;28;20198;-65
2021/11/03 00:30:59;;;;;;;7.55;3.55;;;4.60;77.00;;;;;;5070739;28;20240;-66
2021/11/03 00:33:51;;;;;;;6.47;3.30;;;4.60;77.30;;;;;;5070378;28;20201;-65
2021/11/03 00:36:33;;;;;;;7.07;3.40;;;4.50;75.50;;;;;;5070788;28;20587;-65
2021/11/03 00:39:02;;;;;;;8.45;3.67;;;4.50;74.90;;;;;;5070066;28;20522;-66
2021/11/03 00:41:36;;;;;;;4.45;2.38;;;4.50;74.70;;;;;;5066442;28;20197;-65
2021/11/03 00:44:14;;;;;;;4.00;2.70;;;4.50;74.60;;;;;;5069764;28;20221;-65
2021/11/03 00:46:47;;;;;;;4.93;2.60;;;4.40;74.40;;;;;;5069951;28;20186;-65
2021/11/03 00:49:19;;;;;;;4.38;2.40;;;4.30;74.70;;;;;;5070156;28;20309;-65
2021/11/03 00:51:49;;;;;;;4.97;3.00;;;4.20;74.60;;;;;;5070003;28;20201;-66
2021/11/03 00:54:17;;;;;;;8.85;4.53;;;4.20;74.40;;;;;;5070024;28;20244;-65
2021/11/03 00:56:48;;;;;;;7.10;4.15;;;4.20;74.70;;;;;;5070513;28;20628;-66
2021/11/03 00:59:36;;;;;;;6.35;4.00;;;4.20;75.20;;;;;;5069604;28;20281;-66
2021/11/03 01:02:13;;;;;;;6.45;4.10;;;4.20;75.50;;;;;;5073175;28;20255;-65
2021/11/03 01:04:41;;;;;;;6.93;4.20;;;4.10;75.40;;;;;;5073981;28;20186;-66
2021/11/03 01:07:09;;;;;;;11.40;3.85;;;;;;;;;;5074489;28;20185;-65
2021/11/03 01:09:37;;;;;;;5.72;2.83;;;;;;;;;;5074445;28;20688;-65
2021/11/03 01:12:07;;;;;;;4.05;3.45;;;;;;;;;;5076117;28;20202;-66
2021/11/03 01:14:35;;;;;;;4.63;2.67;;;;;;;;;;5075658;28;20193;-65
2021/11/03 01:17:04;;;;;;;4.18;2.30;;;;;;;;;;5076206;28;20190;-65
2021/11/03 01:19:39;;;;;;;3.55;2.60;;;;;;;;;;5076013;28;20201;-65
2021/11/03 01:22:16;;;;;;;6.47;3.55;;;;;;;;;;5075351;28;20204;-65
2021/11/03 01:24:54;;;;;;;5.72;3.17;;;;;;;;;;5075536;28;20193;-66
2021/11/03 01:27:29;;;;;;;5.30;3.55;;;;;;;;;;5072395;28;20190;-65
2021/11/03 01:29:56;;;;;;;7.50;2.55;;;4.10;75.40;;;;;;5075385;28;20576;-65
2021/11/03 01:32:35;;;;;;;4.35;2.92;;;3.90;77.50;;;;;;5075793;28;20198;-65
2021/11/03 01:35:09;;;;;;;4.07;2.60;;;3.80;75.10;;;;;;5075239;28;20190;-65
2021/11/03 01:37:56;;;;;;;4.05;2.90;;;3.70;75.00;;;;;;5075701;28;20240;-65
2021/11/03 01:40:27;;;;;;;5.43;3.90;;;3.70;75.40;;;;;;5075034;28;20186;-65
2021/11/03 01:43:04;;;;;;;5.40;3.45;;;3.70;75.70;;;;;;5075319;28;20190;-65
2021/11/03 01:45:46;;;;;;;3.42;2.40;;;;;;;;;;5075069;28;20221;-65
2021/11/03 01:48:19;;;;;;;6.00;2.90;;;;;;;;;;5075706;28;20194;-66
2021/11/03 01:50:49;;;;;;;3.83;2.80;;;;;;;;;;5075121;28;20213;-65
2021/11/03 01:53:19;;;;;;;4.97;3.05;;;;;;;;;;5075187;28;20202;-65
2021/11/03 01:55:48;;;;;;;7.10;3.67;;;;;;;;;;5075364;28;20695;-65
2021/11/03 01:58:19;;;;;;;5.20;3.45;;;;;;;;;;5074688;28;20190;-66
2021/11/03 02:00:47;;;;;;;5.47;3.47;;;;;;;;;;5075439;28;20197;-65
2021/11/03 02:06:10;;;;;;;5.55;4.22;;;;;;;;;;5050004;28;20191;-65
2021/11/03 02:08:47;;;;;;;5.20;3.55;;;;;;;;;;5057559;28;20569;-65
2021/11/03 02:11:20;;;;;;;5.15;3.03;;;;;;;;;;5074796;28;20218;-65
2021/11/03 02:13:50;;;;;;;5.60;2.50;;;;;;;;;;5054206;28;20266;-66
2021/11/03 02:16:27;;;;;;;3.63;2.30;;;;;;;;;;5055538;28;20194;-65
2021/11/03 02:18:54;;;;;;;4.70;3.05;;;;;;;;;;5075105;28;20556;-65
2021/11/03 02:21:26;;;;;;;3.83;2.42;;;;;;;;;;5074487;28;20289;-65
2021/11/03 02:24:01;;;;;;;4.72;2.65;;;;;;;;;;5074750;28;20178;-65
2021/11/03 02:26:33;;;;;;;6.38;3.38;;;;;;;;;;5074263;28;20277;-65
2021/11/03 02:29:01;;;;;;;5.53;3.20;;;;;;;;;;5074580;28;20201;-65
2021/11/03 02:31:32;;;;;;;4.82;2.80;;;;;;;;;;5074050;28;20218;-65
2021/11/03 02:34:00;;;;;;;5.25;2.55;;;;;;;;;;5074603;28;20201;-65
2021/11/03 02:36:32;;;;;;;4.50;3.35;;;;;;;;;;5074212;28;20278;-65
2021/11/03 02:39:05;;;;;;;4.93;2.85;;;;;;;;;;5074430;28;20205;-66
2021/11/03 02:41:39;;;;;;;5.53;2.67;;;;;;;;;;5074238;28;20193;-66
2021/11/03 02:44:17;;;;;;;3.10;2.20;;;;;;;;;;5074190;28;20271;-66
2021/11/03 02:46:46;;;;;;;4.18;2.90;;;;;;;;;;5074142;28;20190;-66
2021/11/03 02:49:19;;;;;;;6.60;3.47;;;;;;;;;;5074338;28;20187;-66
2021/11/03 02:51:47;;;;;;;6.82;3.38;;;;;;;;;;5054223;28;20199;-66
2021/11/03 02:54:17;;;;;;;5.43;3.03;;;;;;;;;;5054193;28;20245;-66
2021/11/03 02:56:48;;;;;;;4.50;4.00;;;;;;;;;;5073711;28;20183;-66
2021/11/03 02:59:28;;;;;;;7.60;3.53;;;;;;;;;;5074090;28;20201;-65
2021/11/03 03:02:10;;;;;;;9.20;2.95;;;;;;;;;;5054170;28;20244;-66
2021/11/03 03:04:41;;;;;;;10.15;3.25;;;;;;;;;;5054804;28;20278;-66
2021/11/03 03:07:10;;;;;;;7.10;3.60;;;;;;;;;;5074154;28;20191;-66
2021/11/03 03:09:42;;;;;;;5.70;3.10;;;;;;;;;;5073469;28;20696;-66
2021/11/03 03:12:15;;;;;;;5.40;2.72;;;;;;;;;;5053883;28;20179;-66
2021/11/03 03:14:45;;;;;;;4.35;2.92;;;;;;;;;;5063637;28;20196;-66
2021/11/03 03:17:14;;;;;;;6.15;3.60;;;;;;;;;;5073938;28;20190;-66
2021/11/03 03:19:46;;;;;;;4.40;3.30;;;3.70;76.10;;;;;;5073345;28;20540;-65
2021/11/03 03:22:18;;;;;;;3.28;2.03;;;3.50;81.40;;;;;;5073553;28;20197;-66
2021/11/03 03:24:52;;;;;;;6.15;3.60;;;3.50;81.60;;;;;;5072015;28;20190;-66
2021/11/03 03:27:24;;;;;;;5.75;3.15;;;3.50;79.60;;;;;;5073577;28;20281;-66
2021/11/03 03:29:57;;;;;;;3.95;2.83;;;3.50;79.40;;;;;;5073019;28;20210;-66
2021/11/03 03:32:25;;;;;;;4.63;3.45;;;3.40;77.70;;;;;;5073452;28;20186;-65
2021/11/03 03:34:53;;;;;;;6.13;3.53;;;3.40;78.10;;;;;;5073146;28;20189;-66
2021/11/03 03:37:25;;;;;;;5.03;3.20;;;3.30;76.70;;;;;;5073403;28;20251;-65
2021/11/03 03:39:52;;;;;;;5.32;3.03;;;3.20;75.40;;;;;;5072628;28;20193;-66
2021/11/03 03:42:21;;;;;;;4.38;2.22;;;3.20;75.10;;;;;;5072811;28;20193;-66
2021/11/03 03:44:49;;;;;;;3.65;2.63;;;3.00;75.30;;;;;;5072568;28;20279;-66
2021/11/03 03:47:43;;;;;;;5.43;3.35;;;3.00;76.60;;;;;;5072828;28;20648;-67
2021/11/03 03:50:16;;;;;;;5.28;3.70;;;3.00;77.30;;;;;;5072818;28;20557;-67
2021/11/03 03:52:54;;;;;;;3.85;2.28;;;3.00;78.10;;;;;;5072684;28;20193;-66
2021/11/03 03:55:34;;;;;;;5.30;2.65;;;3.00;78.50;;;;;;5073100;28;20198;-64
2021/11/03 03:58:04;;;;;;;4.75;2.85;;;2.90;78.10;;;;;;5072310;28;20193;-66
2021/11/03 04:00:37;;;;;;;4.57;3.22;;;2.90;78.80;;;;;;5072947;28;20558;-66
2021/11/03 04:03:06;;;;;;;4.53;2.72;;;2.90;78.80;;;;;;5072885;28;20559;-66
2021/11/03 04:05:37;;;;;;;3.38;1.90;;;3.00;79.50;;;;;;5073230;28;20194;-65
2021/11/03 04:08:07;;;;;;;3.92;2.47;;;3.00;79.80;;;;;;5072953;28;20195;-66
2021/11/03 04:13:38;;;;;;;3.92;2.83;;;3.00;80.10;;;;;;5049578;28;20202;-65
2021/11/03 04:16:06;;;;;;;3.17;2.28;;;3.10;80.30;;;;;;5052783;28;20199;-66
2021/11/03 04:18:38;;;;;;;4.28;2.92;;;3.00;80.90;;;;;;5052852;28;20657;-66
2021/11/03 04:21:08;;;;;;;5.13;3.03;;;2.90;81.50;;;;;;5073012;28;20182;-66
2021/11/03 04:23:39;;;;;;;3.45;2.90;;;3.00;81.80;;;;;;5072922;28;20703;-65
2021/11/03 04:26:17;;;;;;;3.10;2.10;;;3.00;81.80;;;;;;5072308;28;20189;-65
2021/11/03 04:28:51;;;;;;;3.40;2.35;;;3.10;82.00;;;;;;5072821;28;20194;-65
2021/11/03 04:31:18;;;;;;;4.20;2.60;;;3.10;81.40;;;;;;5052815;28;20230;-65
2021/11/03 04:33:51;;;;;;;3.22;2.38;;;3.20;81.30;;;;;;5052589;28;20202;-66
2021/11/03 04:36:27;;;;;;;3.40;2.10;;;3.10;81.10;;;;;;5072101;28;20239;-65
2021/11/03 04:38:58;;;;;;;3.97;2.95;;;3.20;81.00;;;;;;5072593;28;20663;-65
2021/11/03 04:41:27;;;;;;;3.53;2.72;;;3.20;79.80;;;;;;5052507;28;20621;-65
2021/11/03 04:43:59;;;;;;;4.88;2.63;;;3.20;79.50;;;;;;5070418;28;20668;-65
2021/11/03 04:46:30;;;;;;;3.20;1.90;;;3.20;79.20;;;;;;5072287;28;20668;-66
2021/11/03 04:49:04;;;;;;;3.63;2.35;;;3.20;79.00;;;;;;5069841;28;20233;-66
2021/11/03 04:51:34;;;;;;;3.58;2.13;;;3.20;79.30;;;;;;5071640;28;20221;-65
2021/11/03 04:54:05;;;;;;;3.90;2.58;;;3.20;79.40;;;;;;5071677;28;20633;-67
2021/11/03 04:56:38;;;;;;;4.07;2.45;;;3.20;79.30;;;;;;5072171;28;20194;-65
2021/11/03 04:59:10;;;;;;;5.07;2.90;;;3.20;79.50;;;;;;5071906;28;20274;-65
2021/11/03 05:01:53;;;;;;;3.70;2.88;;;3.20;79.50;;;;;;5072266;28;20237;-65
2021/11/03 05:04:51;;;;;;;5.25;3.72;;;3.20;78.60;;;;;;5081279;28;20192;-65
2021/11/03 05:07:26;;;;;;;5.65;3.08;;;3.20;78.60;;;;;;5088938;28;20273;-65
2021/11/03 05:09:57;;;;;;;6.95;4.00;;;3.20;79.20;;;;;;5071212;28;20602;-66
2021/11/03 05:12:35;;;;;;;3.33;2.70;;;3.20;78.90;;;;;;5071925;28;20686;-66
2021/11/03 05:15:05;;;;;;;4.88;3.13;;;3.20;79.10;;;;;;5071439;28;20202;-65
2021/11/03 05:17:38;;;;;;;4.45;3.03;;;3.20;78.90;;;;;;5071843;28;20710;-65
2021/11/03 05:20:11;;;;;;;3.90;2.88;;;3.20;78.90;;;;;;5070447;28;20186;-65
2021/11/03 05:22:44;;;;;;;3.05;2.15;;;3.20;78.60;;;;;;5082307;28;20198;-65
2021/11/03 05:25:19;;;;;;;3.42;2.63;;;3.20;79.00;;;;;;5071773;28;20190;-65
2021/11/03 05:27:55;;;;;;;4.20;2.63;;;3.20;78.70;;;;;;5070250;28;20186;-66
2021/11/03 05:30:26;;;;;;;5.00;3.30;;;3.20;78.90;;;;;;5071490;28;20205;-66
2021/11/03 05:32:55;;;;;;;4.85;3.13;;;3.10;79.10;;;;;;5071303;28;20197;-65
2021/11/03 05:35:25;;;;;;;3.65;2.60;;;3.20;79.20;;;;;;5074330;28;20212;-65
2021/11/03 05:38:07;;;;;;;7.35;3.03;;;3.20;79.20;;;;;;5089063;28;20660;-65
2021/11/03 05:40:37;;;;;;;3.08;2.50;;;3.20;79.20;;;;;;5071957;28;20644;-66
2021/11/03 05:43:08;;;;;;;4.53;3.38;;;3.30;79.00;;;;;;5071349;28;20248;-65
2021/11/03 05:45:39;;;;;;;4.80;3.55;;;3.30;78.40;;;;;;5071423;28;20237;-65
2021/11/03 05:48:11;;;;;;;5.28;4.03;;;3.20;77.70;;;;;;5073181;28;20200;-65
2021/11/03 05:50:39;;;;;;;7.30;4.88;;;3.20;77.70;;;;;;5075383;28;20206;-65
2021/11/03 05:53:18;;;;;;;10.55;5.95;;;3.20;78.30;;;;;;5074862;28;20186;-65
2021/11/03 05:55:53;;;;;;;5.32;3.45;;;3.20;78.80;;;;;;5074837;28;20533;-65
2021/11/03 05:58:23;;;;;;;8.32;5.65;;;3.20;78.60;;;;;;5074932;28;20186;-66
2021/11/03 06:00:53;;;;;;;8.80;5.90;;;3.30;77.90;;;;;;5075125;28;20636;-66
2021/11/03 06:03:28;;;;;;;7.18;5.10;;;3.30;78.80;;;;;;5074827;28;20186;-66
2021/11/03 06:05:56;;;;;;;4.70;3.35;;;3.30;78.80;;;;;;5074997;28;20190;-65
2021/11/03 06:08:26;;;;;;;5.10;3.65;;;3.30;79.20;;;;;;5074592;28;20281;-65
2021/11/03 06:11:14;;;;;;;8.63;3.50;;;3.30;79.80;;;;;;5074214;28;20680;-65
2021/11/03 06:13:48;;;;;;;7.60;5.10;;;3.30;79.90;;;;;;5074661;28;20202;-65
2021/11/03 06:16:23;;;;;;;5.40;3.83;;;3.30;79.70;;;;;;5074774;28;20205;-65
2021/11/03 06:18:56;;;;;;;4.40;3.33;;;3.30;79.30;;;;;;5074816;28;20194;-65
2021/11/03 06:21:35;;;;;;;3.75;3.22;;;3.30;79.40;;;;;;5074109;28;20244;-65
2021/11/03 06:24:07;;;;;;;3.85;2.58;;;3.30;79.90;;;;;;5074371;28;20194;-65
2021/11/03 06:26:56;;;;;;;4.50;3.05;;;3.40;80.00;;;;;;5075220;28;20252;-65
2021/11/03 06:29:23;;;;;;;4.32;3.50;;;3.40;80.00;;;;;;5074851;28;20273;-66
2021/11/03 06:31:52;;;;;;;4.07;3.15;;;3.40;79.80;;;;;;5075180;28;20264;-65
2021/11/03 06:34:19;;;;;;;5.43;3.13;;;3.50;79.70;;;;;;5071916;28;20273;-66
2021/11/03 06:36:50;;;;;;;4.72;3.60;;;3.50;79.50;;;;;;5074054;28;20591;-66
2021/11/03 06:39:31;;;;;;;9.32;3.60;;;3.50;79.40;;;;;;5074459;28;20193;-65
2021/11/03 06:42:04;;;;;;;3.55;2.88;;;3.40;80.00;;;;;;5074335;28;20186;-68
2021/11/03 06:44:32;;;;;;;4.07;2.67;;;3.50;80.70;;;;;;5065670;28;20719;-65
2021/11/03 06:47:01;;;;;;;6.47;2.72;;;3.60;81.20;;;;;;5074633;28;20247;-66
2021/11/03 06:49:42;;;;;;;4.90;2.85;;;3.60;81.50;;;;;;5073722;28;20190;-65
2021/11/03 06:52:11;;;;;;;4.10;2.65;;;3.70;81.70;;;;;;5074107;28;20224;-67
2021/11/03 06:54:41;;;;;;;4.53;3.13;;;3.80;81.70;;;;;;5081526;28;20248;-66
2021/11/03 06:57:13;;;;;;;5.32;3.30;;;3.70;81.20;;;;;;5074545;28;20271;-67
2021/11/03 06:59:46;;;;;;;5.70;3.50;;;3.80;81.20;;;;;;5065045;28;20289;-66
2021/11/03 07:02:27;;;;;;;4.28;2.80;;;3.90;81.60;;;;;;5079741;28;20189;-66
2021/11/03 07:05:00;;;;;;;3.90;2.50;;;4.00;81.30;;;;;;5091740;28;20588;-66
2021/11/03 07:07:35;;;;;;;5.60;3.20;;;4.00;81.00;;;;;;5073291;28;20239;-65
2021/11/03 07:10:09;;;;;;;3.78;2.50;;;4.10;81.10;;;;;;5073345;28;20190;-66
2021/11/03 07:12:37;;;;;;;5.28;3.22;;;4.30;80.60;;;;;;5067527;28;20259;-65
2021/11/03 07:15:05;;;;;;;6.05;3.00;;;4.40;80.30;;;;;;5071543;28;20193;-66
2021/11/03 07:17:36;;;;;;;7.15;5.13;;;4.50;80.30;;;;;;5068748;28;20206;-66
2021/11/03 07:20:04;;;;;;;4.25;3.85;;;4.70;80.70;;;;;;5072315;28;20590;-66
2021/11/03 07:22:45;;;;;;;5.68;3.70;;;4.80;80.40;;;;;;5071769;28;20182;-66
2021/11/03 07:25:14;;;;;;;7.60;5.18;;;5.00;79.40;;;;;;5069441;28;20747;-67
2021/11/03 07:27:41;;;;;;;7.57;5.55;;;5.10;79.00;;;;;;5071410;28;20190;-66
2021/11/03 07:30:09;;;;;;;8.15;6.35;;;5.10;78.60;;;;;;5072501;28;20606;-66
2021/11/03 07:32:38;;;;;;;8.63;6.82;;;5.20;77.30;;;;;;5073758;28;20231;-66
2021/11/03 07:35:14;;;;;;;8.57;6.90;;;5.40;77.20;;;;;;5074112;28;20218;-66
2021/11/03 07:37:44;;;;;;;9.30;7.13;;;5.60;76.30;;;;;;5073605;28;20200;-65
2021/11/03 07:40:18;;;;;;;8.60;7.10;;;5.70;76.20;;;;;;5074198;28;20194;-68
2021/11/03 07:43:09;;;;;;;6.80;5.28;;;5.80;76.10;;;;;;5073883;28;20276;-66
2021/11/03 07:45:42;;;;;;;4.60;3.05;;;6.00;75.70;;;;;;5073620;28;20220;-66
2021/11/03 07:48:15;;;;;;;3.70;2.95;;;6.10;75.70;;;;;;5073915;28;20263;-66
2021/11/03 07:50:45;;;;;;;6.38;4.72;;;6.20;75.00;;;;;;5073751;28;20285;-66
2021/11/03 07:53:17;;;;;;;6.28;5.07;;;6.40;75.40;;;;;;5073412;28;20244;-66
2021/11/03 07:55:48;;;;;;;11.18;9.85;;;6.60;75.00;;;;;;5073710;28;20244;-66
2021/11/03 07:58:23;;;;;;;30.95;20.77;;;6.70;74.40;;;;;;5073840;28;20283;-66
2021/11/03 08:00:56;;;;;;;20.42;14.25;;;6.90;72.20;;;;;;5073343;28;20244;-68
2021/11/03 08:03:28;;;;;;;10.20;8.63;;;6.90;72.80;;;;;;5073483;28;20303;-66
2021/11/03 08:05:56;;;;;;;10.70;8.25;;;7.10;72.30;;;;;;5073507;28;20285;-66
2021/11/03 08:08:28;;;;;;;16.95;9.00;;;7.20;71.40;;;;;;5073492;28;20665;-66
2021/11/03 08:10:56;;;;;;;18.08;12.52;;;7.20;71.00;;;;;;5072394;28;20187;-66
2021/11/03 08:13:31;;;;;;;9.85;6.90;;;7.30;71.40;;;;;;5072803;28;20193;-66
2021/11/03 08:16:00;;;;;;;5.70;3.92;;;7.40;71.90;;;;;;5073228;28;20289;-66
2021/11/03 08:18:34;;;;;;;7.30;5.80;;;7.50;71.60;;;;;;5072994;28;20600;-66
2021/11/03 08:21:02;;;;;;;5.88;4.82;;;7.50;70.50;;;;;;5073344;28;20251;-66
2021/11/03 08:23:30;;;;;;;9.45;5.45;;;7.50;69.80;;;;;;5073209;28;20224;-66
2021/11/03 08:26:08;;;;;;;17.08;15.27;;;7.50;70.50;;;;;;5073078;28;20243;-65
2021/11/03 08:28:36;;;;;;;12.60;10.43;;;7.50;69.80;;;;;;5073264;28;20240;-66
2021/11/03 08:31:12;;;;;;;10.35;6.95;;;7.50;70.10;;;;;;5072919;28;20590;-66
2021/11/03 08:33:46;;;;;;;12.00;9.18;;;7.50;69.80;;;;;;5072669;28;20276;-66
2021/11/03 08:36:20;;;;;;;11.20;8.63;;;7.50;70.20;;;;;;5072667;28;20247;-66
2021/11/03 08:38:49;;;;;;;13.07;9.65;;;7.50;70.30;;;;;;5072749;28;20190;-66
2021/11/03 08:41:21;;;;;;;8.73;5.90;;;7.60;70.70;;;;;;5072521;28;20640;-66
2021/11/03 08:43:55;;;;;;;6.78;5.07;;;7.70;71.10;;;;;;5072415;28;20186;-66
2021/11/03 08:46:28;;;;;;;4.35;3.33;;;7.70;70.20;;;;;;5072558;28;20240;-66
2021/11/03 08:48:57;;;;;;;7.20;4.63;;;7.70;70.50;;;;;;5072673;28;20243;-66
2021/11/03 08:51:44;;;;;;;5.40;4.10;;;7.70;70.30;;;;;;5072657;28;20234;-66
2021/11/03 08:54:11;;;;;;;4.82;3.85;;;7.70;70.70;;;;;;5072764;28;20517;-67
2021/11/03 08:56:40;;;;;;;5.05;3.83;;;7.60;70.10;;;;;;5072374;28;20233;-66
2021/11/03 08:59:07;;;;;;;5.72;3.45;;;7.60;70.40;;;;;;5072290;28;20190;-66
2021/11/03 09:01:35;;;;;;;4.47;3.63;;;7.60;70.60;;;;;;5072254;28;20285;-66
2021/11/03 09:04:04;;;;;;;5.82;3.60;;;7.60;71.40;;;;;;5072338;28;20256;-66
2021/11/03 09:06:42;;;;;;;6.28;4.20;;;7.60;72.10;;;;;;5072173;28;20231;-66
2021/11/03 09:09:15;;;;;;;3.30;2.10;;;7.60;73.10;;;;;;5072498;28;20614;-66
2021/11/03 09:11:53;;;;;;;3.95;2.92;;;7.70;73.50;;;;;;5072161;28;20785;-66
2021/11/03 09:14:25;;;;;;;3.67;2.28;;;7.70;73.50;;;;;;5072344;28;20240;-65
2021/11/03 09:16:56;;;;;;;7.15;3.58;;;7.70;72.70;;;;;;5072349;28;20201;-66
2021/11/03 09:19:38;;;;;;;5.20;4.35;;;7.70;72.60;;;;;;5072465;28;20213;-65
2021/11/03 09:22:10;;;;;;;5.28;3.65;;;7.60;71.90;;;;;;5074239;28;20194;-66
2021/11/03 09:24:47;;;;;;;6.18;4.20;;;7.60;72.30;;;;;;5076538;28;20221;-66
2021/11/03 09:27:15;;;;;;;5.50;4.90;;;7.40;73.60;;;;;;5076047;28;20225;-67
2021/11/03 09:29:43;;;;;;;4.25;3.47;;;7.40;74.20;;;;;;5076096;28;20194;-67
2021/11/03 09:32:14;;;;;;;3.97;3.33;;;7.50;74.80;;;;;;5076465;28;20695;-66
2021/11/03 09:34:49;;;;;;;4.70;3.22;;;7.60;75.40;;;;;;5076322;28;20547;-66
2021/11/03 09:37:22;;;;;;;7.18;2.45;;;7.70;75.80;;;;;;5076361;28;20628;-66
2021/11/03 09:39:51;;;;;;;4.40;3.15;;;7.80;75.90;;;;;;5076235;28;20197;-66
2021/11/03 09:42:19;;;;;;;6.80;3.35;;;7.80;75.60;;;;;;5076015;28;20232;-66
2021/11/03 09:44:53;;;;;;;3.67;2.88;;;7.90;76.00;;;;;;5075535;28;20226;-66
2021/11/03 09:47:23;;;;;;;5.35;3.63;;;7.90;75.40;;;;;;5075985;28;20194;-66
2021/11/03 09:49:58;;;;;;;5.28;3.85;;;7.90;75.20;;;;;;5075536;28;20197;-66
2021/11/03 09:52:36;;;;;;;21.05;17.15;;;7.90;74.90;;;;;;5075682;28;20222;-66
2021/11/03 09:55:21;;;;;;;5.47;3.67;;;7.80;73.80;;;;;;5076051;28;20247;-66
2021/11/03 09:58:10;;;;;;;5.40;4.22;;;7.80;74.50;;;;;;5075677;28;20254;-66
2021/11/03 10:00:43;;;;;;;10.73;9.60;;;7.70;74.90;;;;;;5075302;28;20263;-66
2021/11/03 10:03:27;;;;;;;6.22;5.63;;;7.70;75.60;;;;;;5075742;28;20198;-67
2021/11/03 10:06:04;;;;;;;10.00;5.20;;;7.70;76.60;;;;;;5075349;28;20190;-66
2021/11/03 10:08:37;;;;;;;4.20;2.55;;;7.60;76.60;;;;;;5075808;28;20539;-66
2021/11/03 10:11:14;;;;;;;3.50;2.88;;;7.60;77.10;;;;;;5075447;28;20190;-66
2021/11/03 10:13:45;;;;;;;3.17;2.50;;;7.70;77.10;;;;;;5075325;28;20224;-66
2021/11/03 10:16:32;;;;;;;3.95;2.10;;;7.70;77.30;;;;;;5075481;28;20190;-66
2021/11/03 10:19:06;;;;;;;4.07;2.45;;;7.80;77.70;;;;;;5075884;28;20327;-66
2021/11/03 10:21:43;;;;;;;6.72;3.85;;;7.90;77.70;;;;;;5075679;28;20194;-66
2021/11/03 10:24:37;;;;;;;5.55;3.75;;;7.90;77.30;;;;;;5075432;28;20200;-66
2021/11/03 10:27:20;;;;;;;4.13;3.72;;;7.90;77.10;;;;;;5073390;28;20201;-66
2021/11/03 10:29:50;;;;;;;4.30;3.25;;;7.90;78.00;;;;;;5075336;28;20239;-66
2021/11/03 10:32:27;;;;;;;4.68;3.70;;;7.90;78.10;;;;;;5075259;28;20221;-67
2021/11/03 10:35:12;;;;;;;4.63;3.10;;;7.90;77.90;;;;;;5074514;28;20197;-66
2021/11/03 10:37:44;;;;;;;4.68;3.60;;;7.90;77.70;;;;;;5075399;28;20599;-66
2021/11/03 10:40:25;;;;;;;5.90;4.22;;;8.00;78.00;;;;;;5075396;28;20273;-66
2021/11/03 10:42:56;;;;;;;11.32;4.55;;;8.00;78.00;;;;;;5075037;28;20190;-66
2021/11/03 10:45:29;;;;;;;6.53;4.45;;;8.00;78.00;;;;;;5074337;28;20692;-66
2021/11/03 10:48:11;;;;;;;6.72;5.88;;;8.00;78.20;;;;;;5074898;28;20545;-66
2021/11/03 10:51:00;;;;;;;8.80;6.07;;;8.00;77.60;;;;;;5075205;28;20594;-66
2021/11/03 10:53:31;;;;;;;6.13;4.53;;;7.90;78.00;;;;;;5074700;28;20333;-66
2021/11/03 10:56:07;;;;;;;6.47;3.63;;;7.80;78.40;;;;;;5074727;28;20281;-66
2021/11/03 10:58:38;;;;;;;4.25;3.05;;;7.90;78.30;;;;;;5074456;28;20645;-66
2021/11/03 11:01:07;;;;;;;3.55;2.45;;;7.90;78.60;;;;;;5074581;28;20230;-66
2021/11/03 11:03:48;;;;;;;3.70;2.42;;;7.90;79.30;;;;;;5074371;28;20225;-66
2021/11/03 11:06:28;;;;;;;2.75;2.17;;;7.90;79.60;;;;;;5074196;28;20230;-66
2021/11/03 11:09:02;;;;;;;6.85;4.40;;;8.00;80.20;;;;;;5073725;28;20190;-67
2021/11/03 11:11:33;;;;;;;3.85;2.33;;;8.00;79.70;;;;;;5074310;28;20719;-66
2021/11/03 11:14:04;;;;;;;3.95;2.80;;;8.00;79.80;;;;;;5073681;28;20254;-66
2021/11/03 11:16:49;;;;;;;3.42;2.53;;;8.00;79.70;;;;;;5074032;28;20190;-66
2021/11/03 11:19:33;;;;;;;2.75;2.00;;;8.10;80.00;;;;;;5074022;28;20240;-66
2021/11/03 11:22:04;;;;;;;4.07;3.15;;;8.10;80.00;;;;;;5074307;28;20243;-66
2021/11/03 11:24:37;;;;;;;5.90;4.05;;;8.20;80.60;;;;;;5074094;28;20194;-65
2021/11/03 11:27:13;;;;;;;5.65;3.92;;;8.30;81.10;;;;;;5074181;28;20194;-65
2021/11/03 11:29:49;;;;;;;5.47;4.15;;;8.40;81.30;;;;;;5074295;28;20605;-65
2021/11/03 11:32:33;;;;;;;4.13;3.15;;;8.60;81.60;;;;;;5074156;28;20186;-66
2021/11/03 11:35:15;;;;;;;3.35;2.80;;;8.80;81.80;;;;;;5074100;28;20201;-65
2021/11/03 11:37:51;;;;;;;3.55;2.70;;;9.10;80.90;;;;;;5073762;28;20194;-66
2021/11/03 11:40:28;;;;;;;3.80;2.70;;;9.30;79.30;;;;;;5073988;28;20600;-66
2021/11/03 11:43:01;;;;;;;3.20;2.25;;;9.50;79.10;;;;;;5073976;28;20623;-66
2021/11/03 11:45:30;;;;;;;4.63;2.90;;;9.80;77.90;;;;;;5072921;28;20237;-65
2021/11/03 11:48:01;;;;;;;21.52;14.15;;;9.90;77.00;;;;;;5073967;28;20194;-66
2021/11/03 11:50:36;;;;;;;3.63;3.25;;;10.10;76.40;;;;;;5073988;28;20289;-66
2021/11/03 11:53:18;;;;;;;6.00;3.15;;;10.20;75.90;;;;;;5073967;28;20275;-66
2021/11/03 11:56:15;;;;;;;4.95;2.22;;;10.50;75.70;;;;;;5073855;28;20191;-66
2021/11/03 11:58:48;;;;;;;5.35;3.30;;;10.80;74.50;;;;;;5073585;28;20212;-66
2021/11/03 12:01:28;;;;;;;4.90;3.10;;;11.00;73.80;;;;;;5073468;28;20189;-66
2021/11/03 12:04:32;;;;;;;4.05;2.75;;;11.10;73.00;;;;;;5073041;28;20217;-66
2021/11/03 12:07:18;;;;;;;5.70;3.00;;;11.20;73.20;;;;;;5071136;28;20232;-66
2021/11/03 12:10:03;;;;;;;4.93;3.25;;;11.20;71.70;;;;;;5072837;28;20670;-66
2021/11/03 12:12:34;;;;;;;5.30;4.00;;;11.20;72.20;;;;;;5072637;28;20600;-66
2021/11/03 12:15:30;;;;;;;5.00;3.60;;;11.30;72.50;;;;;;5073043;28;20189;-66
2021/11/03 12:17:58;;;;;;;8.25;5.07;;;11.40;72.30;;;;;;5072821;28;20193;-66
2021/11/03 12:20:50;;;;;;;6.85;5.40;;;11.50;72.50;;;;;;5072966;28;20640;-66
2021/11/03 12:23:41;;;;;;;9.25;5.20;;;11.70;72.30;;;;;;5072778;28;20214;-65
2021/11/03 12:26:44;;;;;;;7.55;4.70;;;11.80;72.10;;;;;;5067549;28;20190;-67
2021/11/03 12:29:41;;;;;;;8.15;4.80;;;11.80;71.60;;;;;;5072093;28;20182;-66
2021/11/03 12:32:31;;;;;;;8.05;4.10;;;11.90;72.40;;;;;;5072957;28;20273;-66
2021/11/03 12:35:21;;;;;;;7.53;4.05;;;12.00;71.70;;;;;;5052682;28;20230;-67
2021/11/03 12:37:57;;;;;;;9.88;3.90;;;12.10;71.30;;;;;;5058708;28;20244;-68
2021/11/03 12:40:31;;;;;;;6.35;3.60;;;12.20;71.30;;;;;;5072327;28;20225;-65
2021/11/03 12:43:10;;;;;;;5.63;3.90;;;12.30;71.30;;;;;;5072971;28;20205;-68
2021/11/03 12:45:48;;;;;;;5.40;3.85;;;12.40;71.30;;;;;;5072085;28;20245;-66
2021/11/03 12:48:19;;;;;;;5.32;4.15;;;12.50;70.70;;;;;;5072565;28;20190;-68
2021/11/03 12:50:47;;;;;;;7.18;3.47;;;12.70;69.90;;;;;;5072981;28;20232;-66
2021/11/03 12:53:27;;;;;;;5.30;3.47;;;12.80;69.20;;;;;;5072130;28;20225;-67
2021/11/03 12:55:57;;;;;;;4.32;3.03;;;12.80;68.10;;;;;;5071393;28;20229;-67
2021/11/03 12:58:26;;;;;;;4.68;3.40;;;12.70;66.90;;;;;;5072724;28;20236;-66
2021/11/03 13:00:55;;;;;;;5.35;3.80;;;12.60;67.20;;;;;;5072564;28;20190;-66
2021/11/03 13:03:24;;;;;;;5.65;3.90;;;12.60;67.30;;;;;;5072922;28;20583;-67
2021/11/03 13:05:53;;;;;;;61.10;39.85;;;12.60;68.00;;;;;;5072891;28;20210;-67
2021/11/03 13:08:24;;;;;;;27.05;16.27;;;12.60;68.50;;;;;;5072904;28;20391;-66
2021/11/03 13:11:15;;;;;;;12.73;7.95;;;12.60;68.40;;;;;;5072581;28;20198;-67
2021/11/03 13:13:47;;;;;;;9.38;5.47;;;12.60;68.50;;;;;;5072689;28;20279;-66
2021/11/03 13:16:39;;;;;;;8.77;3.92;;;12.60;68.60;;;;;;5072527;28;20263;-66
2021/11/03 13:19:23;;;;;;;4.18;3.20;;;12.50;68.20;;;;;;5069251;28;20285;-66
2021/11/03 13:21:50;;;;;;;5.10;3.40;;;12.40;67.80;;;;;;5071536;28;20522;-67
2021/11/03 13:24:22;;;;;;;4.18;2.28;;;12.30;68.00;;;;;;5072526;28;20560;-68
2021/11/03 13:26:54;;;;;;;7.70;2.28;;;12.10;67.50;;;;;;5072665;28;20237;-66
2021/11/03 13:29:27;;;;;;;3.42;2.70;;;12.10;67.60;;;;;;5072503;28;20280;-66
2021/11/03 13:32:21;;;;;;;3.53;1.92;;;12.10;67.80;;;;;;5072543;28;20679;-67
2021/11/03 13:34:53;;;;;;;3.42;1.77;;;12.00;68.10;;;;;;5062558;28;20257;-67
2021/11/03 13:37:28;;;;;;;2.67;1.95;;;12.00;68.10;;;;;;5072947;28;20600;-66
2021/11/03 13:40:18;;;;;;;3.30;1.98;;;11.90;68.50;;;;;;5072270;28;20276;-67
2021/11/03 13:42:47;;;;;;;3.20;2.28;;;11.90;69.00;;;;;;5072104;28;20190;-66
2021/11/03 13:45:26;;;;;;;3.80;2.00;;;11.90;69.60;;;;;;5071750;28;20218;-67
2021/11/03 13:48:12;;;;;;;3.80;2.75;;;11.90;69.80;;;;;;5072404;28;20194;-67
2021/11/03 13:50:56;;;;;;;9.98;3.35;;;11.80;69.20;;;;;;5072138;28;20668;-68